Pelican, Alaska
Current Conditions -  °F | °C
As of 8:56 PM on Saturday 20 Dec 2014 (Local Time) from PAOH Reporting Station
Light Rain Light Rain  
Wind Chill: 33°   Ceiling: 2600
Heat Index: 39°   Visibility: 10mi
Dew Point: 38°   Wind: 9mph
Humidity: 97%   Direction: 110°ESE
Pressure: 29.09"   Gusts: NA
Location:  57.96°N, 136.23°W
Report Text: PAOH 210556Z AUTO 11008KT 10SM -RA SCT021 OVC026 04/03 A2909 RMK AO2 TSNO 53020 60000 T00380033 10044 20033 P0000 SLP851 $
Loading
Personal Weather Stations






























Interactive Weather Map New forecast layout! Learn more

10-Day Weather Forecast

Advertisements
Track Severe Weather on mobile